sensor_id;sensor_type;location;lat;lon;timestamp;P1;durP1;ratioP1;P2;durP2;ratioP2
58196;SDS011;43999;51.660;5.616;2023-08-07T00:00:24;6.50;;;4.35;;
58196;SDS011;43999;51.660;5.616;2023-08-07T00:02:51;12.63;;;4.45;;
58196;SDS011;43999;51.660;5.616;2023-08-07T00:05:18;9.13;;;3.90;;
58196;SDS011;43999;51.660;5.616;2023-08-07T00:07:46;9.82;;;4.97;;
58196;SDS011;43999;51.660;5.616;2023-08-07T00:10:14;8.23;;;5.10;;
58196;SDS011;43999;51.660;5.616;2023-08-07T00:12:41;9.70;;;4.28;;
58196;SDS011;43999;51.660;5.616;2023-08-07T00:15:09;8.35;;;3.45;;
58196;SDS011;43999;51.660;5.616;2023-08-07T00:17:38;12.63;;;5.25;;
58196;SDS011;43999;51.660;5.616;2023-08-07T00:20:05;11.50;;;4.43;;
58196;SDS011;43999;51.660;5.616;2023-08-07T00:22:34;11.35;;;4.65;;
58196;SDS011;43999;51.660;5.616;2023-08-07T00:25:01;15.88;;;3.78;;
58196;SDS011;43999;51.660;5.616;2023-08-07T00:27:29;5.75;;;4.18;;
58196;SDS011;43999;51.660;5.616;2023-08-07T00:29:56;8.20;;;3.25;;
58196;SDS011;43999;51.660;5.616;2023-08-07T00:32:25;13.68;;;4.10;;
58196;SDS011;43999;51.660;5.616;2023-08-07T00:34:52;7.47;;;3.00;;
58196;SDS011;43999;51.660;5.616;2023-08-07T00:37:20;8.70;;;3.33;;
58196;SDS011;43999;51.660;5.616;2023-08-07T00:39:47;6.97;;;3.33;;
58196;SDS011;43999;51.660;5.616;2023-08-07T00:42:16;13.30;;;4.50;;
58196;SDS011;43999;51.660;5.616;2023-08-07T00:44:43;7.40;;;3.67;;
58196;SDS011;43999;51.660;5.616;2023-08-07T00:47:10;12.80;;;5.07;;
58196;SDS011;43999;51.660;5.616;2023-08-07T00:49:38;12.35;;;4.55;;
58196;SDS011;43999;51.660;5.616;2023-08-07T00:52:06;11.02;;;4.05;;
58196;SDS011;43999;51.660;5.616;2023-08-07T00:54:34;10.75;;;4.78;;
58196;SDS011;43999;51.660;5.616;2023-08-07T00:57:10;11.20;;;4.22;;
58196;SDS011;43999;51.660;5.616;2023-08-07T00:59:41;8.57;;;3.70;;
58196;SDS011;43999;51.660;5.616;2023-08-07T01:02:10;9.05;;;3.53;;
58196;SDS011;43999;51.660;5.616;2023-08-07T01:04:40;12.32;;;3.40;;
58196;SDS011;43999;51.660;5.616;2023-08-07T01:07:08;8.10;;;4.68;;
58196;SDS011;43999;51.660;5.616;2023-08-07T01:09:36;9.32;;;3.88;;
58196;SDS011;43999;51.660;5.616;2023-08-07T01:12:18;10.30;;;3.90;;
58196;SDS011;43999;51.660;5.616;2023-08-07T01:14:58;10.65;;;4.50;;
58196;SDS011;43999;51.660;5.616;2023-08-07T01:17:46;12.27;;;3.47;;
58196;SDS011;43999;51.660;5.616;2023-08-07T01:20:16;11.07;;;4.15;;
58196;SDS011;43999;51.660;5.616;2023-08-07T01:22:44;10.60;;;4.60;;
58196;SDS011;43999;51.660;5.616;2023-08-07T01:25:12;8.95;;;4.13;;
58196;SDS011;43999;51.660;5.616;2023-08-07T01:30:46;9.18;;;4.30;;
58196;SDS011;43999;51.660;5.616;2023-08-07T01:36:01;10.70;;;4.32;;
58196;SDS011;43999;51.660;5.616;2023-08-07T01:38:33;8.48;;;3.75;;
58196;SDS011;43999;51.660;5.616;2023-08-07T01:41:03;10.82;;;3.75;;
58196;SDS011;43999;51.660;5.616;2023-08-07T01:43:31;9.10;;;3.65;;
58196;SDS011;43999;51.660;5.616;2023-08-07T01:46:00;6.07;;;3.40;;
58196;SDS011;43999;51.660;5.616;2023-08-07T01:48:29;13.57;;;4.60;;
58196;SDS011;43999;51.660;5.616;2023-08-07T01:50:56;10.27;;;3.95;;
58196;SDS011;43999;51.660;5.616;2023-08-07T01:53:24;12.13;;;5.45;;
58196;SDS011;43999;51.660;5.616;2023-08-07T01:55:52;12.75;;;4.65;;
58196;SDS011;43999;51.660;5.616;2023-08-07T01:58:20;14.25;;;5.35;;
58196;SDS011;43999;51.660;5.616;2023-08-07T02:00:47;9.70;;;3.90;;
58196;SDS011;43999;51.660;5.616;2023-08-07T02:03:15;7.68;;;4.00;;
58196;SDS011;43999;51.660;5.616;2023-08-07T02:05:44;12.68;;;4.32;;
58196;SDS011;43999;51.660;5.616;2023-08-07T02:08:13;11.00;;;5.30;;
58196;SDS011;43999;51.660;5.616;2023-08-07T02:10:41;14.55;;;5.32;;
58196;SDS011;43999;51.660;5.616;2023-08-07T02:13:08;12.98;;;5.00;;
58196;SDS011;43999;51.660;5.616;2023-08-07T02:15:36;14.35;;;4.93;;
58196;SDS011;43999;51.660;5.616;2023-08-07T02:18:06;9.27;;;3.75;;
58196;SDS011;43999;51.660;5.616;2023-08-07T02:20:33;9.15;;;4.60;;
58196;SDS011;43999;51.660;5.616;2023-08-07T02:23:01;8.70;;;4.75;;
58196;SDS011;43999;51.660;5.616;2023-08-07T02:25:28;8.07;;;4.70;;
58196;SDS011;43999;51.660;5.616;2023-08-07T02:27:56;7.22;;;4.60;;
58196;SDS011;43999;51.660;5.616;2023-08-07T02:30:23;11.20;;;5.57;;
58196;SDS011;43999;51.660;5.616;2023-08-07T02:32:50;8.43;;;4.32;;
58196;SDS011;43999;51.660;5.616;2023-08-07T02:35:18;13.02;;;4.78;;
58196;SDS011;43999;51.660;5.616;2023-08-07T02:37:45;10.70;;;4.88;;
58196;SDS011;43999;51.660;5.616;2023-08-07T02:40:13;13.05;;;4.40;;
58196;SDS011;43999;51.660;5.616;2023-08-07T02:42:42;7.93;;;4.28;;
58196;SDS011;43999;51.660;5.616;2023-08-07T02:45:09;8.25;;;4.55;;
58196;SDS011;43999;51.660;5.616;2023-08-07T02:47:37;9.77;;;5.13;;
58196;SDS011;43999;51.660;5.616;2023-08-07T02:50:04;14.80;;;5.53;;
58196;SDS011;43999;51.660;5.616;2023-08-07T02:52:33;9.70;;;4.97;;
58196;SDS011;43999;51.660;5.616;2023-08-07T02:55:00;11.82;;;4.82;;
58196;SDS011;43999;51.660;5.616;2023-08-07T02:57:27;7.60;;;5.22;;
58196;SDS011;43999;51.660;5.616;2023-08-07T02:59:55;11.55;;;4.75;;
58196;SDS011;43999;51.660;5.616;2023-08-07T03:02:23;14.43;;;5.90;;
58196;SDS011;43999;51.660;5.616;2023-08-07T03:04:51;10.23;;;4.55;;
58196;SDS011;43999;51.660;5.616;2023-08-07T03:07:18;11.02;;;5.10;;
58196;SDS011;43999;51.660;5.616;2023-08-07T03:09:46;11.63;;;5.50;;
58196;SDS011;43999;51.660;5.616;2023-08-07T03:12:13;11.48;;;5.03;;
58196;SDS011;43999;51.660;5.616;2023-08-07T03:14:41;13.00;;;4.93;;
58196;SDS011;43999;51.660;5.616;2023-08-07T03:17:09;11.32;;;4.68;;
58196;SDS011;43999;51.660;5.616;2023-08-07T03:19:36;10.75;;;5.00;;
58196;SDS011;43999;51.660;5.616;2023-08-07T03:22:06;7.22;;;4.85;;
58196;SDS011;43999;51.660;5.616;2023-08-07T03:24:34;11.18;;;5.20;;
58196;SDS011;43999;51.660;5.616;2023-08-07T03:27:01;9.80;;;4.82;;
58196;SDS011;43999;51.660;5.616;2023-08-07T03:29:29;10.75;;;4.93;;
58196;SDS011;43999;51.660;5.616;2023-08-07T03:31:56;8.23;;;3.65;;
58196;SDS011;43999;51.660;5.616;2023-08-07T03:34:24;10.25;;;5.38;;
58196;SDS011;43999;51.660;5.616;2023-08-07T03:36:51;10.65;;;4.20;;
58196;SDS011;43999;51.660;5.616;2023-08-07T03:39:19;9.88;;;4.75;;
58196;SDS011;43999;51.660;5.616;2023-08-07T03:41:47;11.10;;;5.25;;
58196;SDS011;43999;51.660;5.616;2023-08-07T03:44:16;10.75;;;4.55;;
58196;SDS011;43999;51.660;5.616;2023-08-07T03:46:44;13.50;;;6.35;;
58196;SDS011;43999;51.660;5.616;2023-08-07T03:49:11;13.90;;;5.95;;
58196;SDS011;43999;51.660;5.616;2023-08-07T03:51:41;8.93;;;4.32;;
58196;SDS011;43999;51.660;5.616;2023-08-07T03:54:09;12.15;;;5.13;;
58196;SDS011;43999;51.660;5.616;2023-08-07T03:56:36;8.20;;;5.07;;
58196;SDS011;43999;51.660;5.616;2023-08-07T03:59:04;14.45;;;5.63;;
58196;SDS011;43999;51.660;5.616;2023-08-07T04:01:33;12.95;;;6.47;;
58196;SDS011;43999;51.660;5.616;2023-08-07T04:04:01;10.57;;;4.88;;
58196;SDS011;43999;51.660;5.616;2023-08-07T04:06:29;11.02;;;4.95;;
58196;SDS011;43999;51.660;5.616;2023-08-07T04:08:56;9.55;;;4.47;;
58196;SDS011;43999;51.660;5.616;2023-08-07T04:11:24;16.67;;;5.05;;
58196;SDS011;43999;51.660;5.616;2023-08-07T04:13:53;8.02;;;4.30;;
58196;SDS011;43999;51.660;5.616;2023-08-07T04:16:20;9.52;;;4.80;;
58196;SDS011;43999;51.660;5.616;2023-08-07T04:18:48;11.70;;;5.22;;
58196;SDS011;43999;51.660;5.616;2023-08-07T04:21:15;9.10;;;5.03;;
58196;SDS011;43999;51.660;5.616;2023-08-07T04:23:43;11.60;;;6.07;;
58196;SDS011;43999;51.660;5.616;2023-08-07T04:26:10;11.77;;;5.18;;
58196;SDS011;43999;51.660;5.616;2023-08-07T04:28:37;9.45;;;4.70;;
58196;SDS011;43999;51.660;5.616;2023-08-07T04:31:05;21.70;;;4.90;;
58196;SDS011;43999;51.660;5.616;2023-08-07T04:33:32;6.20;;;3.50;;
58196;SDS011;43999;51.660;5.616;2023-08-07T04:36:00;8.43;;;3.75;;
58196;SDS011;43999;51.660;5.616;2023-08-07T04:38:28;12.75;;;4.35;;
58196;SDS011;43999;51.660;5.616;2023-08-07T04:40:56;10.20;;;4.15;;
58196;SDS011;43999;51.660;5.616;2023-08-07T04:43:23;9.02;;;4.88;;
58196;SDS011;43999;51.660;5.616;2023-08-07T04:45:51;13.40;;;4.95;;
58196;SDS011;43999;51.660;5.616;2023-08-07T04:48:20;7.35;;;4.32;;
58196;SDS011;43999;51.660;5.616;2023-08-07T04:50:51;10.60;;;4.45;;
58196;SDS011;43999;51.660;5.616;2023-08-07T04:53:19;10.00;;;4.47;;
58196;SDS011;43999;51.660;5.616;2023-08-07T04:55:46;12.00;;;4.75;;
58196;SDS011;43999;51.660;5.616;2023-08-07T04:58:13;7.18;;;3.25;;
58196;SDS011;43999;51.660;5.616;2023-08-07T05:00:41;10.07;;;5.05;;
58196;SDS011;43999;51.660;5.616;2023-08-07T05:03:08;11.05;;;4.70;;
58196;SDS011;43999;51.660;5.616;2023-08-07T05:05:36;16.13;;;5.03;;
58196;SDS011;43999;51.660;5.616;2023-08-07T05:08:03;9.30;;;4.32;;
58196;SDS011;43999;51.660;5.616;2023-08-07T05:10:31;13.88;;;4.63;;
58196;SDS011;43999;51.660;5.616;2023-08-07T05:12:58;8.25;;;4.13;;
58196;SDS011;43999;51.660;5.616;2023-08-07T05:15:25;9.82;;;4.35;;
58196;SDS011;43999;51.660;5.616;2023-08-07T05:17:55;14.48;;;5.13;;
58196;SDS011;43999;51.660;5.616;2023-08-07T05:20:22;10.90;;;5.03;;
58196;SDS011;43999;51.660;5.616;2023-08-07T05:22:50;10.32;;;5.22;;
58196;SDS011;43999;51.660;5.616;2023-08-07T05:25:17;7.45;;;4.25;;
58196;SDS011;43999;51.660;5.616;2023-08-07T05:27:45;10.50;;;4.70;;
58196;SDS011;43999;51.660;5.616;2023-08-07T05:30:13;9.05;;;4.20;;
58196;SDS011;43999;51.660;5.616;2023-08-07T05:32:41;12.20;;;5.32;;
58196;SDS011;43999;51.660;5.616;2023-08-07T05:35:09;8.27;;;4.38;;
58196;SDS011;43999;51.660;5.616;2023-08-07T05:37:37;9.25;;;4.40;;
58196;SDS011;43999;51.660;5.616;2023-08-07T05:40:05;10.07;;;4.88;;
58196;SDS011;43999;51.660;5.616;2023-08-07T05:42:33;16.98;;;5.85;;
58196;SDS011;43999;51.660;5.616;2023-08-07T05:45:02;12.90;;;5.47;;
58196;SDS011;43999;51.660;5.616;2023-08-07T05:47:34;10.13;;;4.47;;
58196;SDS011;43999;51.660;5.616;2023-08-07T05:50:02;11.82;;;5.78;;
58196;SDS011;43999;51.660;5.616;2023-08-07T05:52:30;10.40;;;4.93;;
58196;SDS011;43999;51.660;5.616;2023-08-07T05:54:57;17.17;;;5.68;;
58196;SDS011;43999;51.660;5.616;2023-08-07T05:57:25;12.60;;;4.95;;
58196;SDS011;43999;51.660;5.616;2023-08-07T05:59:52;11.10;;;5.65;;
58196;SDS011;43999;51.660;5.616;2023-08-07T06:02:20;11.25;;;3.95;;
58196;SDS011;43999;51.660;5.616;2023-08-07T06:04:47;11.32;;;4.93;;
58196;SDS011;43999;51.660;5.616;2023-08-07T06:07:15;9.90;;;4.78;;
58196;SDS011;43999;51.660;5.616;2023-08-07T06:09:42;12.00;;;6.40;;
58196;SDS011;43999;51.660;5.616;2023-08-07T06:12:10;12.57;;;4.15;;
58196;SDS011;43999;51.660;5.616;2023-08-07T06:14:38;9.75;;;4.60;;
58196;SDS011;43999;51.660;5.616;2023-08-07T06:17:05;10.75;;;4.88;;
58196;SDS011;43999;51.660;5.616;2023-08-07T06:19:32;10.98;;;4.93;;
58196;SDS011;43999;51.660;5.616;2023-08-07T06:22:01;11.20;;;4.30;;
58196;SDS011;43999;51.660;5.616;2023-08-07T06:24:28;14.02;;;5.68;;
58196;SDS011;43999;51.660;5.616;2023-08-07T06:26:56;13.48;;;4.28;;
58196;SDS011;43999;51.660;5.616;2023-08-07T06:29:23;11.13;;;5.03;;
58196;SDS011;43999;51.660;5.616;2023-08-07T06:31:51;16.35;;;6.07;;
58196;SDS011;43999;51.660;5.616;2023-08-07T06:34:18;9.80;;;4.60;;
58196;SDS011;43999;51.660;5.616;2023-08-07T06:36:46;9.05;;;4.45;;
58196;SDS011;43999;51.660;5.616;2023-08-07T06:39:13;12.82;;;4.43;;
58196;SDS011;43999;51.660;5.616;2023-08-07T06:41:41;17.70;;;4.53;;
58196;SDS011;43999;51.660;5.616;2023-08-07T06:44:10;11.65;;;5.07;;
58196;SDS011;43999;51.660;5.616;2023-08-07T06:46:38;6.68;;;4.50;;
58196;SDS011;43999;51.660;5.616;2023-08-07T06:49:05;9.82;;;4.57;;
58196;SDS011;43999;51.660;5.616;2023-08-07T06:51:33;7.40;;;3.97;;
58196;SDS011;43999;51.660;5.616;2023-08-07T06:54:00;6.10;;;4.32;;
58196;SDS011;43999;51.660;5.616;2023-08-07T06:56:27;7.07;;;3.67;;
58196;SDS011;43999;51.660;5.616;2023-08-07T06:58:55;14.65;;;5.00;;
58196;SDS011;43999;51.660;5.616;2023-08-07T07:01:22;5.97;;;3.47;;
58196;SDS011;43999;51.660;5.616;2023-08-07T07:03:50;8.93;;;4.50;;
58196;SDS011;43999;51.660;5.616;2023-08-07T07:06:19;9.90;;;4.63;;
58196;SDS011;43999;51.660;5.616;2023-08-07T07:08:47;10.88;;;3.92;;
58196;SDS011;43999;51.660;5.616;2023-08-07T07:11:15;5.80;;;3.10;;
58196;SDS011;43999;51.660;5.616;2023-08-07T07:13:44;6.50;;;3.35;;
58196;SDS011;43999;51.660;5.616;2023-08-07T07:16:11;7.63;;;3.80;;
58196;SDS011;43999;51.660;5.616;2023-08-07T07:18:39;11.00;;;3.90;;
58196;SDS011;43999;51.660;5.616;2023-08-07T07:21:07;8.85;;;3.53;;
58196;SDS011;43999;51.660;5.616;2023-08-07T07:23:34;5.70;;;3.92;;
58196;SDS011;43999;51.660;5.616;2023-08-07T07:26:02;10.07;;;4.72;;
58196;SDS011;43999;51.660;5.616;2023-08-07T07:28:29;10.52;;;4.28;;
58196;SDS011;43999;51.660;5.616;2023-08-07T07:30:57;7.38;;;3.65;;
58196;SDS011;43999;51.660;5.616;2023-08-07T07:33:25;12.98;;;3.97;;
58196;SDS011;43999;51.660;5.616;2023-08-07T07:35:52;9.20;;;3.80;;
58196;SDS011;43999;51.660;5.616;2023-08-07T07:38:20;9.43;;;4.15;;
58196;SDS011;43999;51.660;5.616;2023-08-07T07:40:48;13.00;;;4.35;;
58196;SDS011;43999;51.660;5.616;2023-08-07T07:43:16;10.52;;;4.60;;
58196;SDS011;43999;51.660;5.616;2023-08-07T07:45:44;9.35;;;4.18;;
58196;SDS011;43999;51.660;5.616;2023-08-07T07:48:11;8.85;;;3.88;;
58196;SDS011;43999;51.660;5.616;2023-08-07T07:50:39;8.43;;;4.32;;
58196;SDS011;43999;51.660;5.616;2023-08-07T07:53:07;7.95;;;4.22;;
58196;SDS011;43999;51.660;5.616;2023-08-07T07:55:34;6.15;;;4.18;;
58196;SDS011;43999;51.660;5.616;2023-08-07T07:58:04;9.45;;;3.85;;
58196;SDS011;43999;51.660;5.616;2023-08-07T08:00:32;8.27;;;4.55;;
58196;SDS011;43999;51.660;5.616;2023-08-07T08:03:00;11.45;;;4.78;;
58196;SDS011;43999;51.660;5.616;2023-08-07T08:05:30;7.65;;;4.82;;
58196;SDS011;43999;51.660;5.616;2023-08-07T08:07:58;8.50;;;4.60;;
58196;SDS011;43999;51.660;5.616;2023-08-07T08:10:25;10.13;;;5.10;;
58196;SDS011;43999;51.660;5.616;2023-08-07T08:12:56;6.30;;;3.58;;
58196;SDS011;43999;51.660;5.616;2023-08-07T08:15:24;8.45;;;3.97;;
58196;SDS011;43999;51.660;5.616;2023-08-07T08:17:52;10.80;;;4.35;;
58196;SDS011;43999;51.660;5.616;2023-08-07T08:20:20;8.30;;;3.88;;
58196;SDS011;43999;51.660;5.616;2023-08-07T08:22:48;9.30;;;4.28;;
58196;SDS011;43999;51.660;5.616;2023-08-07T08:25:15;5.95;;;3.92;;
58196;SDS011;43999;51.660;5.616;2023-08-07T08:27:44;9.85;;;4.65;;
58196;SDS011;43999;51.660;5.616;2023-08-07T08:30:12;7.13;;;3.78;;
58196;SDS011;43999;51.660;5.616;2023-08-07T08:32:39;9.73;;;4.25;;
58196;SDS011;43999;51.660;5.616;2023-08-07T08:35:07;9.77;;;4.80;;
58196;SDS011;43999;51.660;5.616;2023-08-07T08:37:35;9.05;;;4.95;;
58196;SDS011;43999;51.660;5.616;2023-08-07T08:40:02;10.63;;;4.32;;
58196;SDS011;43999;51.660;5.616;2023-08-07T08:42:30;7.95;;;3.78;;
58196;SDS011;43999;51.660;5.616;2023-08-07T08:44:58;8.70;;;3.72;;
58196;SDS011;43999;51.660;5.616;2023-08-07T08:47:29;13.07;;;5.07;;
58196;SDS011;43999;51.660;5.616;2023-08-07T08:50:02;11.98;;;4.60;;
58196;SDS011;43999;51.660;5.616;2023-08-07T08:52:35;11.02;;;4.72;;
58196;SDS011;43999;51.660;5.616;2023-08-07T08:55:07;6.60;;;4.00;;
58196;SDS011;43999;51.660;5.616;2023-08-07T08:57:39;10.95;;;4.40;;
58196;SDS011;43999;51.660;5.616;2023-08-07T09:00:07;9.98;;;3.75;;
58196;SDS011;43999;51.660;5.616;2023-08-07T09:02:48;11.15;;;3.65;;
58196;SDS011;43999;51.660;5.616;2023-08-07T09:05:19;9.10;;;4.50;;
58196;SDS011;43999;51.660;5.616;2023-08-07T09:07:48;13.00;;;4.22;;
58196;SDS011;43999;51.660;5.616;2023-08-07T09:10:16;15.27;;;4.75;;
58196;SDS011;43999;51.660;5.616;2023-08-07T09:12:49;8.45;;;3.85;;
58196;SDS011;43999;51.660;5.616;2023-08-07T09:15:28;8.48;;;3.10;;
58196;SDS011;43999;51.660;5.616;2023-08-07T09:17:58;9.00;;;4.30;;
58196;SDS011;43999;51.660;5.616;2023-08-07T09:20:28;11.88;;;4.68;;
58196;SDS011;43999;51.660;5.616;2023-08-07T09:22:56;9.20;;;3.30;;
58196;SDS011;43999;51.660;5.616;2023-08-07T09:25:30;5.38;;;3.28;;
58196;SDS011;43999;51.660;5.616;2023-08-07T09:28:04;8.80;;;3.17;;
58196;SDS011;43999;51.660;5.616;2023-08-07T09:30:33;6.07;;;3.35;;
58196;SDS011;43999;51.660;5.616;2023-08-07T09:33:05;7.13;;;3.63;;
58196;SDS011;43999;51.660;5.616;2023-08-07T09:35:33;8.63;;;3.38;;
58196;SDS011;43999;51.660;5.616;2023-08-07T09:38:01;7.30;;;3.60;;
58196;SDS011;43999;51.660;5.616;2023-08-07T09:40:29;8.60;;;2.88;;
58196;SDS011;43999;51.660;5.616;2023-08-07T09:43:00;8.80;;;3.35;;
58196;SDS011;43999;51.660;5.616;2023-08-07T09:45:29;12.75;;;3.65;;
58196;SDS011;43999;51.660;5.616;2023-08-07T09:48:04;8.68;;;3.22;;
58196;SDS011;43999;51.660;5.616;2023-08-07T09:50:33;7.95;;;3.22;;
58196;SDS011;43999;51.660;5.616;2023-08-07T09:53:00;6.43;;;3.25;;
58196;SDS011;43999;51.660;5.616;2023-08-07T09:55:28;4.57;;;3.00;;
58196;SDS011;43999;51.660;5.616;2023-08-07T09:57:58;5.45;;;2.95;;
58196;SDS011;43999;51.660;5.616;2023-08-07T10:00:32;7.95;;;3.38;;
58196;SDS011;43999;51.660;5.616;2023-08-07T10:03:04;4.93;;;2.78;;
58196;SDS011;43999;51.660;5.616;2023-08-07T10:05:32;8.27;;;3.28;;
58196;SDS011;43999;51.660;5.616;2023-08-07T10:08:00;7.28;;;3.40;;
58196;SDS011;43999;51.660;5.616;2023-08-07T10:10:29;6.70;;;2.63;;
58196;SDS011;43999;51.660;5.616;2023-08-07T10:13:00;7.60;;;3.35;;
58196;SDS011;43999;51.660;5.616;2023-08-07T10:15:32;5.55;;;2.85;;
58196;SDS011;43999;51.660;5.616;2023-08-07T10:18:01;7.65;;;3.20;;
58196;SDS011;43999;51.660;5.616;2023-08-07T10:20:29;6.68;;;2.80;;
58196;SDS011;43999;51.660;5.616;2023-08-07T10:23:08;9.25;;;3.78;;
58196;SDS011;43999;51.660;5.616;2023-08-07T10:25:39;5.38;;;2.55;;
58196;SDS011;43999;51.660;5.616;2023-08-07T10:28:13;5.18;;;3.15;;
58196;SDS011;43999;51.660;5.616;2023-08-07T10:30:45;11.43;;;4.07;;
58196;SDS011;43999;51.660;5.616;2023-08-07T10:33:15;6.03;;;2.88;;
58196;SDS011;43999;51.660;5.616;2023-08-07T10:35:47;9.50;;;3.25;;
58196;SDS011;43999;51.660;5.616;2023-08-07T10:38:15;6.22;;;2.80;;
58196;SDS011;43999;51.660;5.616;2023-08-07T10:41:05;5.50;;;2.75;;
58196;SDS011;43999;51.660;5.616;2023-08-07T10:43:41;5.57;;;2.83;;
58196;SDS011;43999;51.660;5.616;2023-08-07T10:46:12;16.80;;;3.72;;
58196;SDS011;43999;51.660;5.616;2023-08-07T10:48:54;6.18;;;2.38;;
58196;SDS011;43999;51.660;5.616;2023-08-07T10:51:29;8.65;;;3.10;;
58196;SDS011;43999;51.660;5.616;2023-08-07T10:54:00;6.10;;;3.10;;
58196;SDS011;43999;51.660;5.616;2023-08-07T10:56:35;4.97;;;2.78;;
58196;SDS011;43999;51.660;5.616;2023-08-07T10:59:10;8.65;;;3.00;;
58196;SDS011;43999;51.660;5.616;2023-08-07T11:01:42;7.22;;;2.60;;
58196;SDS011;43999;51.660;5.616;2023-08-07T11:04:11;5.13;;;3.17;;
58196;SDS011;43999;51.660;5.616;2023-08-07T11:06:42;8.32;;;3.42;;
58196;SDS011;43999;51.660;5.616;2023-08-07T11:09:14;4.47;;;3.20;;
58196;SDS011;43999;51.660;5.616;2023-08-07T11:11:42;8.07;;;2.92;;
58196;SDS011;43999;51.660;5.616;2023-08-07T11:14:16;10.10;;;3.22;;
58196;SDS011;43999;51.660;5.616;2023-08-07T11:16:46;4.95;;;2.47;;
58196;SDS011;43999;51.660;5.616;2023-08-07T11:19:15;5.88;;;3.53;;
58196;SDS011;43999;51.660;5.616;2023-08-07T11:21:45;4.55;;;2.28;;
58196;SDS011;43999;51.660;5.616;2023-08-07T11:24:14;5.53;;;2.83;;
58196;SDS011;43999;51.660;5.616;2023-08-07T11:26:46;5.53;;;2.70;;
58196;SDS011;43999;51.660;5.616;2023-08-07T11:29:17;3.95;;;2.25;;
58196;SDS011;43999;51.660;5.616;2023-08-07T11:31:45;4.82;;;2.80;;
58196;SDS011;43999;51.660;5.616;2023-08-07T11:34:13;4.85;;;2.35;;
58196;SDS011;43999;51.660;5.616;2023-08-07T11:36:45;5.10;;;2.85;;
58196;SDS011;43999;51.660;5.616;2023-08-07T11:39:13;5.60;;;3.15;;
58196;SDS011;43999;51.660;5.616;2023-08-07T11:41:41;7.55;;;3.00;;
58196;SDS011;43999;51.660;5.616;2023-08-07T11:44:11;6.70;;;2.60;;
58196;SDS011;43999;51.660;5.616;2023-08-07T11:46:38;4.63;;;2.50;;
58196;SDS011;43999;51.660;5.616;2023-08-07T11:49:06;8.73;;;4.00;;
58196;SDS011;43999;51.660;5.616;2023-08-07T11:51:36;5.45;;;2.22;;
58196;SDS011;43999;51.660;5.616;2023-08-07T11:54:04;5.72;;;2.95;;
58196;SDS011;43999;51.660;5.616;2023-08-07T11:56:31;9.35;;;2.47;;
58196;SDS011;43999;51.660;5.616;2023-08-07T11:58:59;5.85;;;2.80;;
58196;SDS011;43999;51.660;5.616;2023-08-07T12:01:29;7.65;;;3.30;;
58196;SDS011;43999;51.660;5.616;2023-08-07T12:06:32;5.07;;;2.88;;
58196;SDS011;43999;51.660;5.616;2023-08-07T12:09:01;4.80;;;2.33;;
58196;SDS011;43999;51.660;5.616;2023-08-07T12:11:29;6.32;;;3.00;;
58196;SDS011;43999;51.660;5.616;2023-08-07T12:13:59;5.50;;;2.38;;
58196;SDS011;43999;51.660;5.616;2023-08-07T12:16:31;9.43;;;3.58;;
58196;SDS011;43999;51.660;5.616;2023-08-07T12:19:01;4.13;;;2.40;;
58196;SDS011;43999;51.660;5.616;2023-08-07T12:21:30;6.75;;;2.58;;
58196;SDS011;43999;51.660;5.616;2023-08-07T12:24:00;3.25;;;2.30;;
58196;SDS011;43999;51.660;5.616;2023-08-07T12:26:29;3.53;;;2.15;;
58196;SDS011;43999;51.660;5.616;2023-08-07T12:28:57;4.43;;;2.30;;
58196;SDS011;43999;51.660;5.616;2023-08-07T12:31:24;4.55;;;2.38;;
58196;SDS011;43999;51.660;5.616;2023-08-07T12:33:53;5.32;;;1.90;;
58196;SDS011;43999;51.660;5.616;2023-08-07T12:36:21;5.55;;;2.38;;
58196;SDS011;43999;51.660;5.616;2023-08-07T12:38:48;6.10;;;2.40;;
58196;SDS011;43999;51.660;5.616;2023-08-07T12:41:17;5.18;;;2.00;;
58196;SDS011;43999;51.660;5.616;2023-08-07T12:43:48;4.18;;;2.25;;
58196;SDS011;43999;51.660;5.616;2023-08-07T12:46:15;8.07;;;2.90;;
58196;SDS011;43999;51.660;5.616;2023-08-07T12:48:45;6.93;;;2.33;;
58196;SDS011;43999;51.660;5.616;2023-08-07T12:51:13;4.05;;;1.70;;
58196;SDS011;43999;51.660;5.616;2023-08-07T12:53:40;4.18;;;2.38;;
58196;SDS011;43999;51.660;5.616;2023-08-07T12:56:08;4.18;;;1.88;;
58196;SDS011;43999;51.660;5.616;2023-08-07T12:58:35;4.43;;;2.40;;
58196;SDS011;43999;51.660;5.616;2023-08-07T13:01:04;4.47;;;2.35;;
58196;SDS011;43999;51.660;5.616;2023-08-07T13:03:32;4.00;;;1.88;;
58196;SDS011;43999;51.660;5.616;2023-08-07T13:06:00;5.32;;;2.25;;
58196;SDS011;43999;51.660;5.616;2023-08-07T13:08:31;5.82;;;2.28;;
58196;SDS011;43999;51.660;5.616;2023-08-07T13:11:00;4.93;;;2.40;;
58196;SDS011;43999;51.660;5.616;2023-08-07T13:13:28;6.75;;;2.45;;
58196;SDS011;43999;51.660;5.616;2023-08-07T13:15:57;4.93;;;2.53;;
58196;SDS011;43999;51.660;5.616;2023-08-07T13:18:25;4.95;;;3.03;;
58196;SDS011;43999;51.660;5.616;2023-08-07T13:20:52;4.85;;;2.38;;
58196;SDS011;43999;51.660;5.616;2023-08-07T13:23:22;4.03;;;2.42;;
58196;SDS011;43999;51.660;5.616;2023-08-07T13:25:50;4.78;;;2.17;;
58196;SDS011;43999;51.660;5.616;2023-08-07T13:28:17;4.72;;;2.35;;
58196;SDS011;43999;51.660;5.616;2023-08-07T13:30:45;4.68;;;2.88;;
58196;SDS011;43999;51.660;5.616;2023-08-07T13:33:12;5.40;;;2.50;;
58196;SDS011;43999;51.660;5.616;2023-08-07T13:35:40;4.63;;;2.13;;
58196;SDS011;43999;51.660;5.616;2023-08-07T13:38:08;4.45;;;2.22;;
58196;SDS011;43999;51.660;5.616;2023-08-07T13:40:37;3.95;;;2.50;;
58196;SDS011;43999;51.660;5.616;2023-08-07T13:43:04;6.28;;;2.53;;
58196;SDS011;43999;51.660;5.616;2023-08-07T13:45:36;7.93;;;3.05;;
58196;SDS011;43999;51.660;5.616;2023-08-07T13:48:04;6.05;;;3.63;;
58196;SDS011;43999;51.660;5.616;2023-08-07T13:50:35;6.68;;;4.00;;
58196;SDS011;43999;51.660;5.616;2023-08-07T13:53:05;7.32;;;3.70;;
58196;SDS011;43999;51.660;5.616;2023-08-07T13:55:41;9.90;;;3.95;;
58196;SDS011;43999;51.660;5.616;2023-08-07T13:58:10;6.65;;;3.80;;
58196;SDS011;43999;51.660;5.616;2023-08-07T14:00:42;7.43;;;4.07;;
58196;SDS011;43999;51.660;5.616;2023-08-07T14:03:10;4.75;;;3.17;;
58196;SDS011;43999;51.660;5.616;2023-08-07T14:05:39;7.30;;;4.82;;
58196;SDS011;43999;51.660;5.616;2023-08-07T14:08:07;6.85;;;4.03;;
58196;SDS011;43999;51.660;5.616;2023-08-07T14:10:39;8.30;;;4.38;;
58196;SDS011;43999;51.660;5.616;2023-08-07T14:13:08;10.02;;;5.03;;
58196;SDS011;43999;51.660;5.616;2023-08-07T14:15:38;7.25;;;4.25;;
58196;SDS011;43999;51.660;5.616;2023-08-07T14:18:07;5.60;;;3.60;;
58196;SDS011;43999;51.660;5.616;2023-08-07T14:20:36;6.53;;;4.10;;
58196;SDS011;43999;51.660;5.616;2023-08-07T14:23:23;6.60;;;3.42;;
58196;SDS011;43999;51.660;5.616;2023-08-07T14:25:51;5.80;;;4.18;;
58196;SDS011;43999;51.660;5.616;2023-08-07T14:28:19;6.50;;;3.80;;
58196;SDS011;43999;51.660;5.616;2023-08-07T14:30:47;5.78;;;3.88;;
58196;SDS011;43999;51.660;5.616;2023-08-07T14:33:15;6.05;;;4.07;;
58196;SDS011;43999;51.660;5.616;2023-08-07T14:35:43;6.45;;;5.20;;
58196;SDS011;43999;51.660;5.616;2023-08-07T14:38:11;5.85;;;4.60;;
58196;SDS011;43999;51.660;5.616;2023-08-07T14:40:38;5.50;;;4.43;;
58196;SDS011;43999;51.660;5.616;2023-08-07T14:43:07;5.03;;;3.40;;
58196;SDS011;43999;51.660;5.616;2023-08-07T14:45:35;7.13;;;4.57;;
58196;SDS011;43999;51.660;5.616;2023-08-07T14:48:03;9.48;;;3.80;;
58196;SDS011;43999;51.660;5.616;2023-08-07T14:50:31;6.90;;;4.00;;
58196;SDS011;43999;51.660;5.616;2023-08-07T14:52:59;6.32;;;4.13;;
58196;SDS011;43999;51.660;5.616;2023-08-07T14:55:26;5.22;;;3.55;;
58196;SDS011;43999;51.660;5.616;2023-08-07T14:57:54;6.43;;;3.90;;
58196;SDS011;43999;51.660;5.616;2023-08-07T15:00:21;9.15;;;3.78;;